Aviation Digital Data Service (ADDS)

Output produced by METARs form (0333 UTC 23 August 2014)
found at http://aviationweather.gov/adds/metars/
 
KDFW 230251Z 2303/2406 17014KT P6SM FEW070